Time;durP1;ratioP1;P1;durP2;ratioP2;P2;SDS_P1;SDS_P2;PMS_P1;PMS_P2;Temp;Humidity;BMP_temperature;BMP_pressure;BME280_temperature;BME280_humidity;BME280_pressure;Samples;Min_cycle;Max_cycle;Signal;HPM_P1;HPM_P2
2023/03/22 00:00:38;;;;;;;0.70;0.70;;;10.30;99.90;;;;;;5071743;28;20612;-64
2023/03/22 00:03:05;;;;;;;0.70;0.70;;;10.30;99.90;;;;;;5072318;28;20747;-66
2023/03/22 00:05:32;;;;;;;0.90;0.90;;;10.30;99.90;;;;;;5073071;28;20207;-66
2023/03/22 00:07:59;;;;;;;0.67;0.67;;;10.30;99.90;;;;;;5077828;28;20238;-67
2023/03/22 00:10:27;;;;;;;0.60;0.60;;;10.40;99.90;;;;;;5075641;28;20281;-64
2023/03/22 00:12:54;;;;;;;0.80;0.80;;;10.40;99.90;;;;;;5072544;28;20215;-64
2023/03/22 00:15:23;;;;;;;0.70;0.70;;;10.50;99.90;;;;;;5071687;28;20211;-66
2023/03/22 00:17:50;;;;;;;0.70;0.70;;;10.50;99.90;;;;;;5072065;28;20211;-65
2023/03/22 00:20:18;;;;;;;0.60;0.60;;;10.50;99.90;;;;;;5071058;28;20225;-66
2023/03/22 00:22:45;;;;;;;0.87;0.87;;;10.50;99.90;;;;;;5071843;28;20254;-67
2023/03/22 00:25:12;;;;;;;0.70;0.70;;;10.50;99.90;;;;;;5079722;28;20199;-66
2023/03/22 00:27:39;;;;;;;0.70;0.70;;;10.50;99.90;;;;;;5076624;28;20303;-66
2023/03/22 00:30:07;;;;;;;0.93;0.80;;;10.40;99.90;;;;;;5070527;28;20219;-66
2023/03/22 00:32:36;;;;;;;0.77;0.77;;;10.30;99.90;;;;;;5070544;28;20560;-64
2023/03/22 00:35:03;;;;;;;0.83;0.83;;;10.20;99.90;;;;;;5071581;28;20301;-64
2023/03/22 00:37:37;;;;;;;0.73;0.73;;;10.10;99.90;;;;;;5071356;28;20956;-65
2023/03/22 00:40:07;;;;;;;1.87;0.80;;;10.00;99.90;;;;;;5070591;28;20214;-66
2023/03/22 00:42:34;;;;;;;0.83;0.80;;;9.90;99.90;;;;;;5071382;28;20317;-65
2023/03/22 00:45:01;;;;;;;0.80;0.80;;;9.80;99.90;;;;;;5054575;28;20207;-65
2023/03/22 00:47:28;;;;;;;1.50;0.80;;;9.80;99.90;;;;;;5050782;28;20211;-65
2023/03/22 00:49:56;;;;;;;0.70;0.70;;;9.80;99.90;;;;;;5050155;28;20208;-66
2023/03/22 00:52:23;;;;;;;0.90;0.90;;;9.70;99.90;;;;;;5050580;28;20232;-66
2023/03/22 00:54:50;;;;;;;0.80;0.80;;;9.70;99.90;;;;;;5050741;28;20208;-66
2023/03/22 00:57:17;;;;;;;1.23;0.80;;;9.70;99.90;;;;;;5051616;28;20204;-66
2023/03/22 00:59:44;;;;;;;0.77;0.77;;;9.60;99.90;;;;;;5050663;28;20200;-65
2023/03/22 01:02:12;;;;;;;0.83;0.83;;;9.60;99.90;;;;;;5050729;28;20219;-66
2023/03/22 01:04:45;;;;;;;1.07;0.63;;;9.70;99.90;;;;;;5051177;28;20207;-65
2023/03/22 01:07:16;;;;;;;0.63;0.63;;;9.60;99.90;;;;;;5050915;28;20216;-65
2023/03/22 01:09:43;;;;;;;0.70;0.70;;;9.60;99.90;;;;;;5050081;28;20200;-65
2023/03/22 01:12:10;;;;;;;0.80;0.67;;;9.60;99.90;;;;;;5050608;28;20231;-65
2023/03/22 01:14:38;;;;;;;0.80;0.80;;;9.50;99.90;;;;;;5051501;28;20200;-65
2023/03/22 01:17:06;;;;;;;0.70;0.70;;;9.50;99.90;;;;;;5050818;28;20561;-65
2023/03/22 01:19:32;;;;;;;0.60;0.60;;;9.50;99.90;;;;;;5049970;28;20218;-65
2023/03/22 01:21:59;;;;;;;0.70;0.70;;;9.60;99.90;;;;;;5050627;28;20220;-65
2023/03/22 01:24:56;;;;;;;0.70;0.70;;;9.50;99.90;;;;;;5065761;28;20213;-64
2023/03/22 01:27:39;;;;;;;0.60;0.60;;;9.50;99.90;;;;;;5062903;28;20553;-64
2023/03/22 01:30:18;;;;;;;0.73;0.73;;;9.50;99.90;;;;;;5070006;28;20199;-66
2023/03/22 01:32:50;;;;;;;0.80;0.80;;;9.40;99.90;;;;;;5070384;28;20864;-67
2023/03/22 01:35:21;;;;;;;0.70;0.70;;;9.40;99.90;;;;;;5070720;28;20203;-66
2023/03/22 01:37:52;;;;;;;0.63;0.63;;;9.30;99.90;;;;;;5070239;28;20210;-64
2023/03/22 01:40:20;;;;;;;0.70;0.70;;;9.30;99.90;;;;;;5069135;28;20282;-66
2023/03/22 01:42:50;;;;;;;0.80;0.80;;;9.20;99.90;;;;;;5069407;28;20219;-65
2023/03/22 01:45:47;;;;;;;1.20;1.10;;;9.20;99.90;;;;;;5070054;28;20670;-64
2023/03/22 01:48:26;;;;;;;0.70;0.70;;;9.20;99.90;;;;;;5072248;28;20207;-65
2023/03/22 01:51:05;;;;;;;0.63;0.63;;;9.20;99.90;;;;;;5072830;28;20317;-64
2023/03/22 01:53:39;;;;;;;0.83;0.83;;;9.10;99.90;;;;;;5070675;28;20214;-65
2023/03/22 01:56:18;;;;;;;0.60;0.60;;;9.10;99.90;;;;;;5069663;28;20187;-65
2023/03/22 01:58:46;;;;;;;0.80;0.80;;;9.10;99.90;;;;;;5069897;28;20214;-65
2023/03/22 02:01:19;;;;;;;0.70;0.70;;;9.10;99.90;;;;;;5068530;28;20230;-65
2023/03/22 02:03:54;;;;;;;0.70;0.70;;;9.00;99.90;;;;;;5069425;28;20657;-64
2023/03/22 02:06:37;;;;;;;0.80;0.80;;;9.00;99.90;;;;;;5069586;28;20207;-65
2023/03/22 02:09:08;;;;;;;0.67;0.67;;;9.00;99.90;;;;;;5069643;28;20285;-65
2023/03/22 02:11:41;;;;;;;0.80;0.80;;;9.00;99.90;;;;;;5070160;28;20301;-66
2023/03/22 02:14:40;;;;;;;0.80;0.80;;;8.90;99.90;;;;;;5074352;28;20261;-65
2023/03/22 02:17:32;;;;;;;0.50;0.50;;;9.00;99.90;;;;;;5071504;28;20199;-64
2023/03/22 02:20:45;;;;;;;1.43;0.80;;;8.90;99.90;;;;;;5069050;28;20211;-64
2023/03/22 02:23:58;;;;;;;0.73;0.73;;;8.80;99.90;;;;;;5069878;28;20566;-64
2023/03/22 02:27:19;;;;;;;0.77;0.77;;;8.80;99.90;;;;;;5069620;28;20207;-66
2023/03/22 02:30:00;;;;;;;0.93;0.93;;;8.80;99.90;;;;;;5044307;28;20211;-66
2023/03/22 02:33:14;;;;;;;0.90;0.90;;;8.60;99.90;;;;;;5069459;28;20334;-65
2023/03/22 02:36:13;;;;;;;0.70;0.70;;;8.70;99.90;;;;;;5069279;28;20297;-65
2023/03/22 02:39:18;;;;;;;0.80;0.80;;;8.70;99.90;;;;;;5070049;28;20636;-66
2023/03/22 02:42:01;;;;;;;0.70;0.70;;;8.60;99.90;;;;;;5069322;28;20975;-66
2023/03/22 02:44:43;;;;;;;0.75;0.75;;;8.60;99.90;;;;;;5069299;28;20205;-65
2023/03/22 02:47:22;;;;;;;0.70;0.70;;;8.40;99.90;;;;;;5069257;28;20215;-64
2023/03/22 02:49:55;;;;;;;1.43;0.90;;;8.40;99.90;;;;;;5063959;28;20199;-67
2023/03/22 02:52:42;;;;;;;0.63;0.63;;;8.30;99.90;;;;;;5068741;28;20310;-66
2023/03/22 02:55:21;;;;;;;0.70;0.70;;;8.30;99.90;;;;;;5070095;28;20321;-64
2023/03/22 02:57:57;;;;;;;0.67;0.67;;;8.30;99.90;;;;;;5072843;28;20628;-65
2023/03/22 03:00:31;;;;;;;0.93;0.93;;;8.30;99.90;;;;;;5072078;28;20213;-66
2023/03/22 03:03:09;;;;;;;0.77;0.77;;;8.20;99.90;;;;;;5073120;28;20238;-65
2023/03/22 03:05:41;;;;;;;0.60;0.60;;;8.20;99.90;;;;;;5072831;28;20317;-65
2023/03/22 03:08:18;;;;;;;0.80;0.80;;;8.20;99.90;;;;;;5072621;28;20203;-65
2023/03/22 03:13:32;;;;;;;0.77;0.77;;;8.20;99.90;;;;;;5071344;28;20663;-64
2023/03/22 03:16:06;;;;;;;0.80;0.80;;;8.20;99.90;;;;;;5072459;28;20203;-63
2023/03/22 03:18:44;;;;;;;1.00;1.00;;;8.20;99.90;;;;;;5072599;28;20222;-64
2023/03/22 03:21:29;;;;;;;0.80;0.80;;;8.30;99.90;;;;;;5071464;28;20234;-64
2023/03/22 03:24:06;;;;;;;0.80;0.80;;;8.30;99.90;;;;;;5071743;28;20215;-65
2023/03/22 03:26:46;;;;;;;0.80;0.80;;;8.40;99.90;;;;;;5052984;28;20295;-66
2023/03/22 03:29:26;;;;;;;0.77;0.77;;;8.40;99.90;;;;;;5060126;28;20223;-65
2023/03/22 03:32:01;;;;;;;0.80;0.80;;;8.40;99.90;;;;;;5054381;28;20368;-66
2023/03/22 03:34:38;;;;;;;0.70;0.70;;;8.40;99.90;;;;;;5052417;28;20226;-64
2023/03/22 03:37:09;;;;;;;0.70;0.70;;;8.30;99.90;;;;;;5052330;28;20227;-65
2023/03/22 03:39:46;;;;;;;0.80;0.80;;;8.30;99.90;;;;;;5052047;28;20874;-65
2023/03/22 03:42:18;;;;;;;1.00;1.00;;;8.30;99.90;;;;;;5053373;28;20239;-64
2023/03/22 03:44:48;;;;;;;1.00;1.00;;;8.20;99.90;;;;;;5065452;28;20198;-66
2023/03/22 03:47:19;;;;;;;0.70;0.70;;;8.20;99.90;;;;;;5066472;28;20215;-66
2023/03/22 03:49:48;;;;;;;0.87;0.87;;;8.10;99.90;;;;;;5063673;28;20670;-66
2023/03/22 03:52:23;;;;;;;0.83;0.83;;;8.10;99.90;;;;;;5063468;28;20232;-64
2023/03/22 03:54:50;;;;;;;0.87;0.87;;;8.10;99.90;;;;;;5061257;28;20203;-65
2023/03/22 03:57:23;;;;;;;0.90;0.90;;;8.10;99.90;;;;;;5052109;28;20299;-64
2023/03/22 03:59:53;;;;;;;0.80;0.80;;;8.10;99.90;;;;;;5051223;28;20247;-64
2023/03/22 04:02:23;;;;;;;1.13;0.97;;;8.10;99.90;;;;;;5051066;28;20224;-64
2023/03/22 04:04:55;;;;;;;1.00;1.00;;;8.10;99.90;;;;;;5051653;28;20203;-64
2023/03/22 04:07:28;;;;;;;0.90;0.90;;;8.20;99.90;;;;;;5062201;28;20235;-64
2023/03/22 04:09:55;;;;;;;1.13;0.80;;;8.20;99.90;;;;;;5070746;28;20218;-64
2023/03/22 04:12:26;;;;;;;0.80;0.80;;;8.20;99.90;;;;;;5069550;28;20235;-64
2023/03/22 04:14:55;;;;;;;0.80;0.80;;;8.20;99.90;;;;;;5070073;28;20213;-64
2023/03/22 04:17:28;;;;;;;0.77;0.77;;;8.20;99.90;;;;;;5071288;28;20211;-65
2023/03/22 04:19:57;;;;;;;0.80;0.80;;;8.20;99.90;;;;;;5070523;28;20203;-66
2023/03/22 04:22:25;;;;;;;0.63;0.63;;;8.10;99.90;;;;;;5070956;28;20227;-66
2023/03/22 04:24:52;;;;;;;1.00;1.00;;;8.10;99.90;;;;;;5071246;28;20737;-65
2023/03/22 04:27:21;;;;;;;1.00;1.00;;;8.10;99.90;;;;;;5070381;28;20742;-64
2023/03/22 04:29:55;;;;;;;0.90;0.90;;;8.00;99.90;;;;;;5070204;28;20211;-64
2023/03/22 04:32:25;;;;;;;0.90;0.90;;;8.00;99.90;;;;;;5070732;28;20231;-64
2023/03/22 04:34:54;;;;;;;0.90;0.90;;;7.90;99.90;;;;;;5071364;28;20203;-65
2023/03/22 04:37:26;;;;;;;0.73;0.73;;;7.90;99.90;;;;;;5071621;28;20661;-65
2023/03/22 04:39:56;;;;;;;0.90;0.90;;;8.00;99.90;;;;;;5070510;28;20280;-64
2023/03/22 04:42:24;;;;;;;0.93;0.87;;;8.00;99.90;;;;;;5081024;28;20550;-65
2023/03/22 04:44:52;;;;;;;1.03;1.00;;;8.00;99.90;;;;;;5076568;28;20234;-66
2023/03/22 04:47:21;;;;;;;0.80;0.80;;;8.00;99.90;;;;;;5085085;28;20233;-66
2023/03/22 04:49:50;;;;;;;1.00;1.00;;;8.00;99.90;;;;;;5085633;28;20572;-65
2023/03/22 04:52:22;;;;;;;0.90;0.90;;;8.00;99.90;;;;;;5084783;28;20354;-65
2023/03/22 04:54:51;;;;;;;0.90;0.90;;;8.00;99.90;;;;;;5079990;28;20214;-66
2023/03/22 04:57:35;;;;;;;0.93;0.93;;;8.00;99.90;;;;;;5072568;28;20309;-65
2023/03/22 05:00:07;;;;;;;1.00;1.00;;;8.00;99.90;;;;;;5068614;28;20207;-65
2023/03/22 05:02:37;;;;;;;1.07;1.07;;;7.90;99.90;;;;;;5069419;28;20579;-65
2023/03/22 05:05:05;;;;;;;0.77;0.77;;;7.90;99.90;;;;;;5070224;28;20211;-65
2023/03/22 05:07:44;;;;;;;0.80;0.80;;;7.80;99.90;;;;;;5070301;28;20199;-65
2023/03/22 05:10:15;;;;;;;0.75;0.75;;;7.80;99.90;;;;;;5072218;28;20298;-65
2023/03/22 05:12:58;;;;;;;0.80;0.80;;;7.80;99.90;;;;;;5070980;28;20873;-64
2023/03/22 05:15:27;;;;;;;1.00;1.00;;;7.80;99.90;;;;;;5070567;28;20239;-65
2023/03/22 05:17:54;;;;;;;0.80;0.80;;;7.80;99.90;;;;;;5070109;28;20666;-64
2023/03/22 05:20:28;;;;;;;0.90;0.90;;;7.80;99.90;;;;;;5070016;28;20265;-63
2023/03/22 05:23:01;;;;;;;1.20;1.10;;;7.90;99.90;;;;;;5070942;28;20700;-64
2023/03/22 05:25:30;;;;;;;1.00;1.00;;;7.90;99.90;;;;;;5065744;28;20207;-65
2023/03/22 05:28:00;;;;;;;1.00;1.00;;;7.90;99.90;;;;;;5070404;28;20196;-65
2023/03/22 05:30:30;;;;;;;0.90;0.90;;;7.90;99.90;;;;;;5069556;28;20597;-64
2023/03/22 05:33:02;;;;;;;0.93;0.93;;;7.90;99.90;;;;;;5070049;28;20288;-64
2023/03/22 05:35:29;;;;;;;1.20;1.20;;;7.90;99.90;;;;;;5069929;28;20716;-67
2023/03/22 05:38:06;;;;;;;1.10;1.10;;;7.90;99.90;;;;;;5070136;28;20210;-64
2023/03/22 05:40:45;;;;;;;1.23;1.13;;;7.90;99.90;;;;;;5069038;28;20202;-65
2023/03/22 05:43:17;;;;;;;1.00;1.00;;;7.90;99.90;;;;;;5062908;28;20594;-65
2023/03/22 05:45:48;;;;;;;1.03;1.03;;;7.90;99.90;;;;;;5064691;28;20622;-65
2023/03/22 05:48:22;;;;;;;0.98;0.98;;;7.90;99.90;;;;;;5069676;28;20302;-65
2023/03/22 05:50:56;;;;;;;1.17;1.13;;;7.90;99.90;;;;;;5069073;28;20254;-65
2023/03/22 05:53:26;;;;;;;2.55;1.00;;;7.90;99.90;;;;;;5069579;28;20265;-64
2023/03/22 05:55:59;;;;;;;0.90;0.90;;;7.80;99.90;;;;;;5069613;28;20289;-65
2023/03/22 05:58:27;;;;;;;0.90;0.90;;;7.90;99.90;;;;;;5068838;28;20804;-65
2023/03/22 06:01:00;;;;;;;0.90;0.90;;;7.90;99.90;;;;;;5068290;28;20227;-65
2023/03/22 06:03:31;;;;;;;0.90;0.90;;;7.90;99.90;;;;;;5070294;28;20573;-65
2023/03/22 06:05:58;;;;;;;1.00;1.00;;;7.90;99.90;;;;;;5070127;28;20298;-65
2023/03/22 06:08:27;;;;;;;0.90;0.90;;;8.00;99.90;;;;;;5069930;28;20635;-65
2023/03/22 06:10:54;;;;;;;1.00;1.00;;;8.00;99.90;;;;;;5069083;28;20656;-64
2023/03/22 06:13:25;;;;;;;0.90;0.90;;;8.10;99.90;;;;;;5069442;28;20378;-64
2023/03/22 06:15:56;;;;;;;1.17;1.10;;;8.10;99.90;;;;;;5070193;28;20696;-64
2023/03/22 06:18:25;;;;;;;1.07;0.97;;;8.10;99.90;;;;;;5070540;28;20199;-65
2023/03/22 06:20:57;;;;;;;1.13;1.10;;;8.20;99.90;;;;;;5069013;28;20732;-64
2023/03/22 06:23:26;;;;;;;1.07;1.07;;;8.20;99.90;;;;;;5058558;28;20192;-65
2023/03/22 06:25:53;;;;;;;1.00;1.00;;;8.20;99.90;;;;;;5060720;28;20292;-66
2023/03/22 06:28:28;;;;;;;1.63;1.10;;;8.30;99.90;;;;;;5057118;28;20203;-65
2023/03/22 06:31:10;;;;;;;0.93;0.93;;;8.30;99.90;;;;;;5064160;28;20219;-64
2023/03/22 06:33:44;;;;;;;1.33;1.13;;;8.30;99.90;;;;;;5053806;28;20219;-64
2023/03/22 06:36:19;;;;;;;0.90;0.90;;;8.40;99.90;;;;;;5065701;28;20198;-64
2023/03/22 06:38:49;;;;;;;1.07;1.07;;;8.40;99.90;;;;;;5059176;28;20206;-64
2023/03/22 06:41:16;;;;;;;1.10;1.00;;;8.50;99.90;;;;;;5058564;28;20228;-64
2023/03/22 06:43:50;;;;;;;0.80;0.80;;;8.60;99.90;;;;;;5064395;28;20199;-64
2023/03/22 06:46:25;;;;;;;0.90;0.90;;;8.70;99.90;;;;;;5062551;28;20285;-65
2023/03/22 06:49:01;;;;;;;1.20;1.10;;;8.70;99.90;;;;;;5061471;28;20259;-64
2023/03/22 06:51:48;;;;;;;0.73;0.73;;;8.80;99.90;;;;;;5064237;28;20246;-65
2023/03/22 06:54:17;;;;;;;1.30;1.30;;;8.80;99.90;;;;;;5069772;28;20302;-65
2023/03/22 06:56:44;;;;;;;1.00;1.00;;;8.80;99.90;;;;;;5064055;28;20293;-65
2023/03/22 06:59:13;;;;;;;1.17;1.10;;;8.90;99.90;;;;;;5063308;28;20269;-65
2023/03/22 07:01:40;;;;;;;1.00;1.00;;;9.00;99.90;;;;;;5053084;28;20718;-65
2023/03/22 07:04:13;;;;;;;1.00;1.00;;;9.00;99.90;;;;;;5053253;28;20258;-65
2023/03/22 07:06:40;;;;;;;1.00;1.00;;;9.10;99.90;;;;;;5052459;28;20294;-61
2023/03/22 07:09:06;;;;;;;1.00;1.00;;;9.30;99.90;;;;;;5071503;28;20207;-62
2023/03/22 07:11:33;;;;;;;1.00;1.00;;;9.40;99.90;;;;;;5074311;28;20237;-63
2023/03/22 07:14:00;;;;;;;1.10;1.10;;;9.60;99.90;;;;;;5076609;28;20219;-62
2023/03/22 07:16:27;;;;;;;1.20;1.20;;;9.70;99.90;;;;;;5073984;28;20226;-64
2023/03/22 07:18:54;;;;;;;1.13;1.10;;;9.90;99.90;;;;;;5075658;28;20203;-64
2023/03/22 07:21:23;;;;;;;1.20;1.20;;;10.00;99.90;;;;;;5081551;28;20227;-63
2023/03/22 07:23:49;;;;;;;1.17;1.17;;;10.10;99.90;;;;;;5062751;28;20238;-63
2023/03/22 07:26:16;;;;;;;0.90;0.90;;;10.20;99.90;;;;;;5068567;28;20199;-62
2023/03/22 07:28:43;;;;;;;0.90;0.90;;;10.30;99.90;;;;;;5074039;28;20230;-63
2023/03/22 07:31:12;;;;;;;1.03;1.03;;;10.40;99.90;;;;;;5072356;28;20238;-61
2023/03/22 07:33:39;;;;;;;0.90;0.90;;;10.50;99.90;;;;;;5071845;28;20740;-63
2023/03/22 07:36:08;;;;;;;1.17;1.10;;;10.50;99.90;;;;;;5072159;28;20296;-62
2023/03/22 07:38:37;;;;;;;1.07;0.90;;;10.60;99.90;;;;;;5072353;28;20230;-63
2023/03/22 07:41:05;;;;;;;1.10;1.00;;;10.70;99.90;;;;;;5072328;28;20864;-64
2023/03/22 07:43:33;;;;;;;0.80;0.80;;;10.70;99.90;;;;;;5072938;28;20612;-64
2023/03/22 07:46:00;;;;;;;1.00;1.00;;;10.90;99.90;;;;;;5073103;28;20277;-63
2023/03/22 07:48:29;;;;;;;0.80;0.80;;;11.00;99.90;;;;;;5072977;28;20296;-63
2023/03/22 07:50:56;;;;;;;0.80;0.80;;;11.20;99.90;;;;;;5072275;28;20281;-63
2023/03/22 07:53:23;;;;;;;1.03;1.03;;;11.40;99.90;;;;;;5072984;28;20723;-63
2023/03/22 07:55:51;;;;;;;0.80;0.80;;;11.70;99.90;;;;;;5075636;28;20207;-63
2023/03/22 07:58:18;;;;;;;0.80;0.80;;;11.90;99.90;;;;;;5076507;28;20258;-64
2023/03/22 08:00:48;;;;;;;0.90;0.90;;;12.10;99.90;;;;;;5073305;28;20207;-63
2023/03/22 08:03:15;;;;;;;0.90;0.90;;;12.40;99.90;;;;;;5074015;28;20204;-63
2023/03/22 08:05:43;;;;;;;0.80;0.80;;;12.60;99.90;;;;;;5072666;28;20203;-63
2023/03/22 08:08:12;;;;;;;1.00;1.00;;;12.80;99.90;;;;;;5072670;28;20205;-63
2023/03/22 08:10:39;;;;;;;0.70;0.70;;;13.10;99.90;;;;;;5071347;28;20199;-64
2023/03/22 08:13:07;;;;;;;0.60;0.60;;;13.40;99.90;;;;;;5072239;28;20225;-64
2023/03/22 08:15:36;;;;;;;1.07;1.00;;;13.70;99.90;;;;;;5072219;28;20225;-65
2023/03/22 08:18:02;;;;;;;0.60;0.60;;;13.90;99.90;;;;;;5072626;28;20207;-64
2023/03/22 08:20:29;;;;;;;0.63;0.63;;;14.20;99.90;;;;;;5071419;28;20667;-64
2023/03/22 08:22:56;;;;;;;0.60;0.60;;;14.50;99.90;;;;;;5072443;28;20229;-64
2023/03/22 08:25:23;;;;;;;0.60;0.60;;;14.70;99.90;;;;;;5072304;28;20650;-64
2023/03/22 08:27:50;;;;;;;0.70;0.70;;;15.00;99.90;;;;;;5072230;28;20203;-63
2023/03/22 08:30:18;;;;;;;0.77;0.77;;;15.20;99.90;;;;;;5071334;28;20203;-62
2023/03/22 08:32:45;;;;;;;0.83;0.83;;;15.40;99.90;;;;;;5073918;28;20287;-63
2023/03/22 08:35:12;;;;;;;0.60;0.60;;;15.50;99.90;;;;;;5072890;28;20203;-63
2023/03/22 08:37:40;;;;;;;0.60;0.60;;;15.70;99.90;;;;;;5072008;28;20199;-64
2023/03/22 08:40:09;;;;;;;0.73;0.73;;;15.90;99.90;;;;;;5071164;28;20214;-63
2023/03/22 08:42:36;;;;;;;0.70;0.70;;;16.00;99.90;;;;;;5071747;28;20669;-63
2023/03/22 08:45:03;;;;;;;0.60;0.60;;;16.00;99.90;;;;;;5071788;28;20285;-63
2023/03/22 08:47:31;;;;;;;0.70;0.70;;;16.00;99.90;;;;;;5071387;28;20554;-64
2023/03/22 08:49:58;;;;;;;0.57;0.57;;;16.20;99.90;;;;;;5070991;28;20761;-63
2023/03/22 08:52:25;;;;;;;0.80;0.80;;;16.60;99.90;;;;;;5071680;28;20225;-63
2023/03/22 08:54:53;;;;;;;0.53;0.53;;;16.70;99.90;;;;;;5071781;28;20265;-64
2023/03/22 08:57:21;;;;;;;0.70;0.70;;;16.80;99.90;;;;;;5071507;28;20208;-63
2023/03/22 08:59:48;;;;;;;0.50;0.50;;;16.90;99.90;;;;;;5071096;28;20207;-63
2023/03/22 09:02:15;;;;;;;0.50;0.50;;;17.00;99.90;;;;;;5071476;28;20230;-63
2023/03/22 09:04:43;;;;;;;0.60;0.60;;;16.90;99.90;;;;;;5071540;28;20203;-63
2023/03/22 09:07:10;;;;;;;0.60;0.60;;;16.90;99.90;;;;;;5071686;28;20226;-65
2023/03/22 09:09:37;;;;;;;0.90;0.90;;;16.80;99.90;;;;;;5071029;28;20749;-63
2023/03/22 09:12:04;;;;;;;0.43;0.43;;;16.80;99.90;;;;;;5071244;28;20233;-63
2023/03/22 09:14:30;;;;;;;0.43;0.43;;;16.90;99.90;;;;;;5071431;28;20778;-63
2023/03/22 09:16:57;;;;;;;0.57;0.40;;;17.00;99.90;;;;;;5071590;28;20214;-63
2023/03/22 09:19:24;;;;;;;0.60;0.60;;;17.00;99.90;;;;;;5071165;28;20202;-63
2023/03/22 09:21:53;;;;;;;0.50;0.50;;;17.00;99.90;;;;;;5071267;28;20321;-64
2023/03/22 09:24:20;;;;;;;0.50;0.50;;;17.20;99.90;;;;;;5071346;28;20580;-64
2023/03/22 09:26:47;;;;;;;0.60;0.60;;;17.40;99.90;;;;;;5071837;28;20205;-63
2023/03/22 09:29:14;;;;;;;0.70;0.70;;;17.70;99.90;;;;;;5071001;28;20207;-63
2023/03/22 09:31:41;;;;;;;0.60;0.60;;;18.00;99.90;;;;;;5071129;28;20223;-63
2023/03/22 09:34:07;;;;;;;0.70;0.70;;;18.20;99.90;;;;;;5071244;28;20277;-64
2023/03/22 09:36:34;;;;;;;0.70;0.70;;;18.30;99.90;;;;;;5071528;28;20644;-64
2023/03/22 09:39:06;;;;;;;0.60;0.60;;;18.40;99.90;;;;;;5070489;28;20214;-64
2023/03/22 09:41:37;;;;;;;0.55;0.55;;;18.30;99.90;;;;;;5071118;28;20318;-64
2023/03/22 09:44:09;;;;;;;0.60;0.60;;;18.30;99.90;;;;;;5070987;28;20214;-64
2023/03/22 09:46:38;;;;;;;0.50;0.50;;;18.20;99.90;;;;;;5073808;28;20207;-63
2023/03/22 09:49:12;;;;;;;0.60;0.60;;;18.30;99.90;;;;;;5071572;28;20693;-63
2023/03/22 09:51:41;;;;;;;0.73;0.73;;;18.30;99.90;;;;;;5069571;28;20231;-64
2023/03/22 09:54:17;;;;;;;0.87;0.87;;;18.20;99.90;;;;;;5071978;28;20230;-63
2023/03/22 09:56:47;;;;;;;0.73;0.73;;;18.10;99.90;;;;;;5071338;28;20198;-63
2023/03/22 09:59:20;;;;;;;0.82;0.80;;;18.20;99.90;;;;;;5070122;28;20209;-64
2023/03/22 10:01:55;;;;;;;0.77;0.77;;;18.50;99.90;;;;;;5070677;28;20223;-65
2023/03/22 10:04:35;;;;;;;0.70;0.70;;;18.70;99.90;;;;;;5072337;28;20209;-64
2023/03/22 10:07:07;;;;;;;0.57;0.57;;;18.80;99.90;;;;;;5075171;28;20203;-65
2023/03/22 10:09:41;;;;;;;0.60;0.60;;;18.90;99.90;;;;;;5074120;28;20207;-64
2023/03/22 10:12:16;;;;;;;0.50;0.50;;;19.00;99.90;;;;;;5075553;28;20724;-65
2023/03/22 10:14:49;;;;;;;0.50;0.50;;;18.90;99.90;;;;;;5079348;28;20302;-63
2023/03/22 10:17:19;;;;;;;0.60;0.60;;;18.80;99.90;;;;;;5075412;28;20211;-64
2023/03/22 10:19:54;;;;;;;0.50;0.50;;;19.10;99.90;;;;;;5074064;28;20218;-64
2023/03/22 10:22:24;;;;;;;0.57;0.57;;;19.20;99.90;;;;;;5074220;28;20218;-63
2023/03/22 10:24:54;;;;;;;0.50;0.50;;;19.30;99.90;;;;;;5074530;28;20230;-64
2023/03/22 10:27:23;;;;;;;0.67;0.67;;;19.20;99.90;;;;;;5074515;28;20932;-63
2023/03/22 10:29:53;;;;;;;0.60;0.60;;;19.30;99.90;;;;;;5072796;28;20298;-65
2023/03/22 10:32:26;;;;;;;0.73;0.50;;;19.60;99.90;;;;;;5073290;28;20274;-64
2023/03/22 10:34:54;;;;;;;0.45;0.45;;;19.60;99.90;;;;;;5073878;28;20313;-66
2023/03/22 10:37:24;;;;;;;0.50;0.50;;;19.60;99.90;;;;;;5074656;28;20573;-64
2023/03/22 10:39:55;;;;;;;0.50;0.50;;;19.60;99.90;;;;;;5073847;28;20214;-64
2023/03/22 10:42:24;;;;;;;0.40;0.40;;;19.40;99.90;;;;;;5074195;28;20227;-64
2023/03/22 10:44:56;;;;;;;0.30;0.30;;;19.40;99.90;;;;;;5072522;28;20339;-64
2023/03/22 10:47:31;;;;;;;0.60;0.60;;;19.30;99.90;;;;;;5074031;28;20211;-63
2023/03/22 10:50:01;;;;;;;0.40;0.40;;;19.30;99.90;;;;;;5073271;28;20217;-63
2023/03/22 10:52:38;;;;;;;0.50;0.50;;;19.40;99.90;;;;;;5074210;28;20231;-65
2023/03/22 10:55:10;;;;;;;0.60;0.60;;;19.70;99.90;;;;;;5074210;28;20226;-64
2023/03/22 10:57:38;;;;;;;0.50;0.50;;;19.80;99.90;;;;;;5074045;28;20211;-65
2023/03/22 11:00:10;;;;;;;0.50;0.50;;;19.80;99.90;;;;;;5072827;28;20206;-64
2023/03/22 11:02:46;;;;;;;0.33;0.33;;;19.90;99.90;;;;;;5073720;28;20339;-64
2023/03/22 11:05:21;;;;;;;0.57;0.57;;;20.10;99.90;;;;;;5073898;28;20252;-64
2023/03/22 11:07:49;;;;;;;0.40;0.40;;;20.10;99.90;;;;;;5073861;28;20210;-64
2023/03/22 11:10:26;;;;;;;0.50;0.50;;;20.10;99.90;;;;;;5072632;28;20203;-64
2023/03/22 11:12:55;;;;;;;0.50;0.50;;;20.00;99.90;;;;;;5073380;28;20223;-63
2023/03/22 11:15:26;;;;;;;0.68;0.68;;;20.00;99.90;;;;;;5073540;28;20235;-63
2023/03/22 11:17:58;;;;;;;0.80;0.80;;;20.10;99.90;;;;;;5073678;28;20234;-64
2023/03/22 11:20:25;;;;;;;0.90;0.90;;;20.10;99.90;;;;;;5072848;28;20203;-64
2023/03/22 11:22:52;;;;;;;0.60;0.60;;;20.00;99.90;;;;;;5073219;28;20229;-65
2023/03/22 11:25:25;;;;;;;0.40;0.40;;;19.80;99.90;;;;;;5072494;28;20209;-64
2023/03/22 11:27:55;;;;;;;0.45;0.45;;;19.60;99.90;;;;;;5072872;28;20207;-63
2023/03/22 11:30:25;;;;;;;0.60;0.60;;;19.60;99.90;;;;;;5073362;28;20203;-64
2023/03/22 11:33:02;;;;;;;0.60;0.60;;;19.60;99.90;;;;;;5073758;28;20231;-63
2023/03/22 11:35:31;;;;;;;0.50;0.50;;;19.50;99.90;;;;;;5074223;28;20936;-64
2023/03/22 11:37:58;;;;;;;0.73;0.73;;;19.50;99.90;;;;;;5073547;28;20208;-64
2023/03/22 11:40:30;;;;;;;0.60;0.60;;;19.50;99.90;;;;;;5072993;28;20218;-64
2023/03/22 11:43:10;;;;;;;0.65;0.65;;;19.60;99.90;;;;;;5073381;28;20258;-63
2023/03/22 11:45:41;;;;;;;0.50;0.50;;;19.80;99.90;;;;;;5073508;28;20195;-65
2023/03/22 11:48:14;;;;;;;0.70;0.70;;;20.00;99.90;;;;;;5073599;28;20577;-63
2023/03/22 11:50:45;;;;;;;0.50;0.50;;;20.10;99.90;;;;;;5072711;28;20199;-64
2023/03/22 11:53:16;;;;;;;0.70;0.55;;;20.20;99.90;;;;;;5079135;28;20213;-64
2023/03/22 11:55:47;;;;;;;0.60;0.60;;;20.40;99.90;;;;;;5089588;28;20231;-63
2023/03/22 11:58:27;;;;;;;0.65;0.47;;;20.50;99.90;;;;;;5075968;28;20203;-64
2023/03/22 12:00:56;;;;;;;0.63;0.63;;;20.60;99.90;;;;;;5073325;28;20231;-64
2023/03/22 12:03:27;;;;;;;1.23;0.73;;;20.60;99.90;;;;;;5073279;28;20221;-64
2023/03/22 12:05:55;;;;;;;0.63;0.63;;;20.50;99.90;;;;;;5073600;28;20186;-64
2023/03/22 12:08:28;;;;;;;0.63;0.63;;;20.70;99.90;;;;;;5074017;28;20297;-64
2023/03/22 12:11:02;;;;;;;0.77;0.77;;;20.90;99.90;;;;;;5073010;28;20594;-65
2023/03/22 12:13:38;;;;;;;0.50;0.50;;;21.00;99.90;;;;;;5073610;28;20222;-65
2023/03/22 12:16:07;;;;;;;0.40;0.40;;;21.00;99.90;;;;;;5073328;28;20205;-65
2023/03/22 12:18:39;;;;;;;0.30;0.30;;;21.10;99.90;;;;;;5073164;28;20211;-63
2023/03/22 12:21:06;;;;;;;0.47;0.47;;;20.90;99.90;;;;;;5071987;28;20284;-63
2023/03/22 12:23:34;;;;;;;0.50;0.50;;;20.90;99.90;;;;;;5072869;28;20204;-64
2023/03/22 12:26:05;;;;;;;0.50;0.50;;;20.90;99.90;;;;;;5073034;28;20211;-67
2023/03/22 12:28:37;;;;;;;0.55;0.55;;;21.00;99.90;;;;;;5072018;28;20207;-64
2023/03/22 12:31:06;;;;;;;0.60;0.60;;;21.20;99.90;;;;;;5072594;28;20281;-65
2023/03/22 12:33:39;;;;;;;0.50;0.50;;;21.30;99.90;;;;;;5074408;28;20298;-65
2023/03/22 12:36:07;;;;;;;0.43;0.43;;;21.30;99.90;;;;;;5073149;28;20230;-63
2023/03/22 12:38:40;;;;;;;0.70;0.70;;;21.40;99.90;;;;;;5083233;28;20235;-64
2023/03/22 12:41:14;;;;;;;0.45;0.45;;;21.50;99.90;;;;;;5087525;28;20231;-64
2023/03/22 12:43:52;;;;;;;0.80;0.70;;;21.40;99.90;;;;;;5086608;28;20203;-64
2023/03/22 12:46:23;;;;;;;0.80;0.60;;;21.20;99.90;;;;;;5078300;28;20298;-65
2023/03/22 12:48:53;;;;;;;1.05;0.70;;;21.20;99.90;;;;;;5074964;28;20219;-64
2023/03/22 12:51:20;;;;;;;0.70;0.70;;;21.40;99.90;;;;;;5072367;28;20229;-64
2023/03/22 12:53:49;;;;;;;0.60;0.60;;;21.50;99.90;;;;;;5072633;28;20211;-63
2023/03/22 12:56:21;;;;;;;0.60;0.60;;;21.40;99.90;;;;;;5072422;28;20207;-64
2023/03/22 12:58:52;;;;;;;0.60;0.60;;;21.40;99.90;;;;;;5073250;28;20214;-64
2023/03/22 13:01:28;;;;;;;0.57;0.55;;;21.30;99.90;;;;;;5071519;28;20227;-64
2023/03/22 13:03:56;;;;;;;0.40;0.40;;;21.40;99.90;;;;;;5071907;28;20213;-64
2023/03/22 13:06:54;;;;;;;0.80;0.80;;;21.50;99.90;;;;;;5072032;28;20210;-65
2023/03/22 13:09:36;;;;;;;0.60;0.60;;;21.40;99.90;;;;;;5071527;28;20231;-64
2023/03/22 13:12:32;;;;;;;0.30;0.30;;;21.30;99.90;;;;;;5072401;28;20238;-64
2023/03/22 13:15:02;;;;;;;0.70;0.70;;;21.40;99.90;;;;;;5072099;28;20318;-64
2023/03/22 13:17:39;;;;;;;0.70;0.70;;;21.60;99.90;;;;;;5072222;28;20293;-64
2023/03/22 13:20:26;;;;;;;0.52;0.52;;;21.70;99.90;;;;;;5071278;28;20356;-65